sensor_id;sensor_type;location;lat;lon;timestamp;temperature;humidity
19192;DHT22;9728;48.194;16.346;2023-04-15T00:03:02;13.10;70.00
19192;DHT22;9728;48.194;16.346;2023-04-15T00:08:06;13.00;69.90
19192;DHT22;9728;48.194;16.346;2023-04-15T00:13:11;13.00;70.20
19192;DHT22;9728;48.194;16.346;2023-04-15T00:18:14;12.90;70.30
19192;DHT22;9728;48.194;16.346;2023-04-15T00:23:18;12.90;70.20
19192;DHT22;9728;48.194;16.346;2023-04-15T00:28:22;12.80;70.20
19192;DHT22;9728;48.194;16.346;2023-04-15T00:33:25;12.80;70.30
19192;DHT22;9728;48.194;16.346;2023-04-15T00:38:29;12.80;70.30
19192;DHT22;9728;48.194;16.346;2023-04-15T00:43:34;12.70;70.30
19192;DHT22;9728;48.194;16.346;2023-04-15T00:48:39;12.70;70.40
19192;DHT22;9728;48.194;16.346;2023-04-15T00:53:43;12.70;70.40
19192;DHT22;9728;48.194;16.346;2023-04-15T00:58:48;12.60;70.50
19192;DHT22;9728;48.194;16.346;2023-04-15T01:03:51;12.60;70.60
19192;DHT22;9728;48.194;16.346;2023-04-15T01:08:56;12.60;70.60
19192;DHT22;9728;48.194;16.346;2023-04-15T01:14:02;12.50;70.80
19192;DHT22;9728;48.194;16.346;2023-04-15T01:19:05;12.60;71.00
19192;DHT22;9728;48.194;16.346;2023-04-15T01:24:11;12.50;71.00
19192;DHT22;9728;48.194;16.346;2023-04-15T01:29:17;12.50;71.10
19192;DHT22;9728;48.194;16.346;2023-04-15T01:34:21;12.50;71.20
19192;DHT22;9728;48.194;16.346;2023-04-15T01:39:27;12.50;71.10
19192;DHT22;9728;48.194;16.346;2023-04-15T01:44:32;12.50;71.30
19192;DHT22;9728;48.194;16.346;2023-04-15T01:49:35;12.50;71.40
19192;DHT22;9728;48.194;16.346;2023-04-15T01:54:38;12.60;71.40
19192;DHT22;9728;48.194;16.346;2023-04-15T01:59:44;12.60;71.50
19192;DHT22;9728;48.194;16.346;2023-04-15T02:04:49;12.60;71.60
19192;DHT22;9728;48.194;16.346;2023-04-15T02:09:52;12.60;71.60
19192;DHT22;9728;48.194;16.346;2023-04-15T02:14:56;12.60;71.50
19192;DHT22;9728;48.194;16.346;2023-04-15T02:20:00;12.60;71.50
19192;DHT22;9728;48.194;16.346;2023-04-15T02:25:06;12.70;71.40
19192;DHT22;9728;48.194;16.346;2023-04-15T02:30:12;12.70;71.50
19192;DHT22;9728;48.194;16.346;2023-04-15T02:35:15;12.70;71.50
19192;DHT22;9728;48.194;16.346;2023-04-15T02:40:20;12.70;71.20
19192;DHT22;9728;48.194;16.346;2023-04-15T02:45:26;12.70;71.10
19192;DHT22;9728;48.194;16.346;2023-04-15T02:50:29;12.80;71.20
19192;DHT22;9728;48.194;16.346;2023-04-15T02:55:33;12.80;71.00
19192;DHT22;9728;48.194;16.346;2023-04-15T03:00:37;12.80;71.10
19192;DHT22;9728;48.194;16.346;2023-04-15T03:05:41;12.80;71.10
19192;DHT22;9728;48.194;16.346;2023-04-15T03:10:44;12.80;71.00
19192;DHT22;9728;48.194;16.346;2023-04-15T03:15:49;12.90;71.10
19192;DHT22;9728;48.194;16.346;2023-04-15T03:20:54;12.90;71.30
19192;DHT22;9728;48.194;16.346;2023-04-15T03:26:01;12.90;71.30
19192;DHT22;9728;48.194;16.346;2023-04-15T03:31:07;12.90;71.30
19192;DHT22;9728;48.194;16.346;2023-04-15T03:36:10;13.00;72.00
19192;DHT22;9728;48.194;16.346;2023-04-15T03:41:14;13.00;71.40
19192;DHT22;9728;48.194;16.346;2023-04-15T03:46:19;13.00;71.50
19192;DHT22;9728;48.194;16.346;2023-04-15T03:51:22;13.10;71.80
19192;DHT22;9728;48.194;16.346;2023-04-15T03:56:25;13.10;71.70
19192;DHT22;9728;48.194;16.346;2023-04-15T04:01:30;13.20;71.80
19192;DHT22;9728;48.194;16.346;2023-04-15T04:06:33;13.20;71.90
19192;DHT22;9728;48.194;16.346;2023-04-15T04:11:36;13.20;71.80
19192;DHT22;9728;48.194;16.346;2023-04-15T04:16:41;13.30;71.80
19192;DHT22;9728;48.194;16.346;2023-04-15T04:21:45;13.30;71.90
19192;DHT22;9728;48.194;16.346;2023-04-15T04:26:49;13.30;71.90
19192;DHT22;9728;48.194;16.346;2023-04-15T04:31:53;13.30;71.80
19192;DHT22;9728;48.194;16.346;2023-04-15T04:36:57;13.30;71.80
19192;DHT22;9728;48.194;16.346;2023-04-15T04:42:00;13.40;71.80
19192;DHT22;9728;48.194;16.346;2023-04-15T04:47:05;13.40;71.70
19192;DHT22;9728;48.194;16.346;2023-04-15T04:52:08;13.40;71.80
19192;DHT22;9728;48.194;16.346;2023-04-15T04:57:11;13.40;71.80
19192;DHT22;9728;48.194;16.346;2023-04-15T05:02:16;13.40;71.80
19192;DHT22;9728;48.194;16.346;2023-04-15T05:07:20;13.50;72.00
19192;DHT22;9728;48.194;16.346;2023-04-15T05:12:23;13.50;71.80
19192;DHT22;9728;48.194;16.346;2023-04-15T05:17:28;13.50;71.90
19192;DHT22;9728;48.194;16.346;2023-04-15T05:22:32;13.50;72.00
19192;DHT22;9728;48.194;16.346;2023-04-15T05:27:36;13.50;71.90
19192;DHT22;9728;48.194;16.346;2023-04-15T05:32:40;13.60;72.00
19192;DHT22;9728;48.194;16.346;2023-04-15T05:37:44;13.60;72.10
19192;DHT22;9728;48.194;16.346;2023-04-15T05:42:48;13.60;72.20
19192;DHT22;9728;48.194;16.346;2023-04-15T05:47:52;13.60;72.20
19192;DHT22;9728;48.194;16.346;2023-04-15T05:52:56;13.70;72.30
19192;DHT22;9728;48.194;16.346;2023-04-15T05:57:59;13.70;72.10
19192;DHT22;9728;48.194;16.346;2023-04-15T06:03:04;13.70;72.20
19192;DHT22;9728;48.194;16.346;2023-04-15T06:08:08;13.70;72.30
19192;DHT22;9728;48.194;16.346;2023-04-15T06:13:12;13.80;72.30
19192;DHT22;9728;48.194;16.346;2023-04-15T06:18:16;13.80;72.40
19192;DHT22;9728;48.194;16.346;2023-04-15T06:23:21;13.80;72.60
19192;DHT22;9728;48.194;16.346;2023-04-15T06:28:24;13.90;72.70
19192;DHT22;9728;48.194;16.346;2023-04-15T06:33:30;13.90;72.80
19192;DHT22;9728;48.194;16.346;2023-04-15T06:38:33;14.00;72.90
19192;DHT22;9728;48.194;16.346;2023-04-15T06:43:37;14.00;72.90
19192;DHT22;9728;48.194;16.346;2023-04-15T06:48:41;14.10;72.90
19192;DHT22;9728;48.194;16.346;2023-04-15T06:53:47;14.10;72.70
19192;DHT22;9728;48.194;16.346;2023-04-15T06:58:50;14.20;72.90
19192;DHT22;9728;48.194;16.346;2023-04-15T07:03:55;14.30;72.60
19192;DHT22;9728;48.194;16.346;2023-04-15T07:08:58;14.30;72.70
19192;DHT22;9728;48.194;16.346;2023-04-15T07:14:02;14.30;72.60
19192;DHT22;9728;48.194;16.346;2023-04-15T07:19:07;14.40;72.80
19192;DHT22;9728;48.194;16.346;2023-04-15T07:24:10;14.50;72.80
19192;DHT22;9728;48.194;16.346;2023-04-15T07:29:13;14.50;72.70
19192;DHT22;9728;48.194;16.346;2023-04-15T07:34:19;14.60;72.60
19192;DHT22;9728;48.194;16.346;2023-04-15T07:39:22;14.60;73.70
19192;DHT22;9728;48.194;16.346;2023-04-15T07:44:26;14.70;73.00
19192;DHT22;9728;48.194;16.346;2023-04-15T07:49:30;14.80;73.10
19192;DHT22;9728;48.194;16.346;2023-04-15T07:54:38;14.80;73.20
19192;DHT22;9728;48.194;16.346;2023-04-15T07:59:41;14.90;73.20
19192;DHT22;9728;48.194;16.346;2023-04-15T08:04:45;14.90;73.70
19192;DHT22;9728;48.194;16.346;2023-04-15T08:09:49;15.00;73.90
19192;DHT22;9728;48.194;16.346;2023-04-15T08:14:54;15.00;73.80
19192;DHT22;9728;48.194;16.346;2023-04-15T08:19:58;15.00;74.10
19192;DHT22;9728;48.194;16.346;2023-04-15T08:25:02;15.10;73.70
19192;DHT22;9728;48.194;16.346;2023-04-15T08:30:07;15.10;74.10
19192;DHT22;9728;48.194;16.346;2023-04-15T08:35:13;15.20;74.20
19192;DHT22;9728;48.194;16.346;2023-04-15T08:40:16;15.20;74.30
19192;DHT22;9728;48.194;16.346;2023-04-15T08:45:20;15.30;73.30
19192;DHT22;9728;48.194;16.346;2023-04-15T08:50:27;15.40;72.20
19192;DHT22;9728;48.194;16.346;2023-04-15T08:55:32;15.50;71.60
19192;DHT22;9728;48.194;16.346;2023-04-15T09:00:37;15.50;70.60
19192;DHT22;9728;48.194;16.346;2023-04-15T09:05:42;15.50;70.10
19192;DHT22;9728;48.194;16.346;2023-04-15T09:10:46;15.50;69.90
19192;DHT22;9728;48.194;16.346;2023-04-15T09:15:49;15.60;69.80
19192;DHT22;9728;48.194;16.346;2023-04-15T09:20:54;15.60;69.50
19192;DHT22;9728;48.194;16.346;2023-04-15T09:25:58;15.60;69.50
19192;DHT22;9728;48.194;16.346;2023-04-15T09:31:01;15.70;69.30
19192;DHT22;9728;48.194;16.346;2023-04-15T09:36:06;15.70;69.40
19192;DHT22;9728;48.194;16.346;2023-04-15T09:41:16;15.80;69.50
19192;DHT22;9728;48.194;16.346;2023-04-15T09:46:39;15.80;69.40
19192;DHT22;9728;48.194;16.346;2023-04-15T09:51:45;15.90;69.50
19192;DHT22;9728;48.194;16.346;2023-04-15T09:57:06;15.90;69.30
19192;DHT22;9728;48.194;16.346;2023-04-15T10:02:12;16.00;69.00
19192;DHT22;9728;48.194;16.346;2023-04-15T10:07:19;16.00;68.80
19192;DHT22;9728;48.194;16.346;2023-04-15T10:12:23;16.00;68.90
19192;DHT22;9728;48.194;16.346;2023-04-15T10:17:29;16.00;68.90
19192;DHT22;9728;48.194;16.346;2023-04-15T10:22:38;16.10;68.80
19192;DHT22;9728;48.194;16.346;2023-04-15T10:27:42;16.10;68.80
19192;DHT22;9728;48.194;16.346;2023-04-15T10:32:46;16.10;68.60
19192;DHT22;9728;48.194;16.346;2023-04-15T10:37:51;16.20;68.50
19192;DHT22;9728;48.194;16.346;2023-04-15T10:42:55;16.20;68.40
19192;DHT22;9728;48.194;16.346;2023-04-15T10:48:01;16.20;68.20
19192;DHT22;9728;48.194;16.346;2023-04-15T10:53:09;16.20;68.10
19192;DHT22;9728;48.194;16.346;2023-04-15T10:58:12;16.20;68.30
19192;DHT22;9728;48.194;16.346;2023-04-15T11:03:30;16.20;68.40
19192;DHT22;9728;48.194;16.346;2023-04-15T11:08:58;16.20;68.20
19192;DHT22;9728;48.194;16.346;2023-04-15T11:14:14;16.30;68.40
19192;DHT22;9728;48.194;16.346;2023-04-15T11:19:17;16.30;68.40
19192;DHT22;9728;48.194;16.346;2023-04-15T11:24:24;16.30;68.60
19192;DHT22;9728;48.194;16.346;2023-04-15T11:29:29;16.40;68.50
19192;DHT22;9728;48.194;16.346;2023-04-15T11:34:33;16.40;68.60
19192;DHT22;9728;48.194;16.346;2023-04-15T11:39:38;16.40;68.50
19192;DHT22;9728;48.194;16.346;2023-04-15T11:44:41;16.50;68.60
19192;DHT22;9728;48.194;16.346;2023-04-15T11:49:45;16.50;68.40
19192;DHT22;9728;48.194;16.346;2023-04-15T11:54:49;16.50;68.40
19192;DHT22;9728;48.194;16.346;2023-04-15T11:59:54;16.60;68.20
19192;DHT22;9728;48.194;16.346;2023-04-15T12:05:02;16.60;68.80
19192;DHT22;9728;48.194;16.346;2023-04-15T12:10:08;16.60;68.10
19192;DHT22;9728;48.194;16.346;2023-04-15T12:15:11;16.70;68.80
19192;DHT22;9728;48.194;16.346;2023-04-15T12:20:20;16.70;67.90
19192;DHT22;9728;48.194;16.346;2023-04-15T12:25:34;16.80;67.70
19192;DHT22;9728;48.194;16.346;2023-04-15T12:30:48;16.80;67.70
19192;DHT22;9728;48.194;16.346;2023-04-15T12:35:52;16.80;67.50
19192;DHT22;9728;48.194;16.346;2023-04-15T12:40:56;16.90;67.50
19192;DHT22;9728;48.194;16.346;2023-04-15T12:46:01;16.80;67.10
19192;DHT22;9728;48.194;16.346;2023-04-15T12:51:05;16.80;67.10
19192;DHT22;9728;48.194;16.346;2023-04-15T12:56:10;16.80;67.00
19192;DHT22;9728;48.194;16.346;2023-04-15T13:01:14;16.80;67.00
19192;DHT22;9728;48.194;16.346;2023-04-15T13:06:17;16.80;66.90
19192;DHT22;9728;48.194;16.346;2023-04-15T13:11:22;16.80;66.90
19192;DHT22;9728;48.194;16.346;2023-04-15T13:16:25;16.80;66.90
19192;DHT22;9728;48.194;16.346;2023-04-15T13:21:28;16.80;67.10
19192;DHT22;9728;48.194;16.346;2023-04-15T13:26:34;16.80;67.20
19192;DHT22;9728;48.194;16.346;2023-04-15T13:31:39;16.90;67.30
19192;DHT22;9728;48.194;16.346;2023-04-15T13:36:42;16.90;67.40
19192;DHT22;9728;48.194;16.346;2023-04-15T13:41:47;17.00;67.40
19192;DHT22;9728;48.194;16.346;2023-04-15T13:46:51;17.10;67.10
19192;DHT22;9728;48.194;16.346;2023-04-15T13:51:54;17.20;66.70
19192;DHT22;9728;48.194;16.346;2023-04-15T13:56:59;17.20;66.60
19192;DHT22;9728;48.194;16.346;2023-04-15T14:02:02;17.30;66.20
19192;DHT22;9728;48.194;16.346;2023-04-15T14:07:06;17.30;66.10
19192;DHT22;9728;48.194;16.346;2023-04-15T14:12:11;17.40;66.00
19192;DHT22;9728;48.194;16.346;2023-04-15T14:17:14;17.40;65.80
19192;DHT22;9728;48.194;16.346;2023-04-15T14:22:17;17.40;65.90
19192;DHT22;9728;48.194;16.346;2023-04-15T14:27:22;17.40;65.80
19192;DHT22;9728;48.194;16.346;2023-04-15T14:32:25;17.40;65.50
19192;DHT22;9728;48.194;16.346;2023-04-15T14:37:29;17.50;65.40
19192;DHT22;9728;48.194;16.346;2023-04-15T14:42:33;17.60;65.20
19192;DHT22;9728;48.194;16.346;2023-04-15T14:47:39;17.50;64.60
19192;DHT22;9728;48.194;16.346;2023-04-15T14:52:42;17.50;64.60
19192;DHT22;9728;48.194;16.346;2023-04-15T14:57:47;17.40;64.70
19192;DHT22;9728;48.194;16.346;2023-04-15T15:02:50;17.30;64.50
19192;DHT22;9728;48.194;16.346;2023-04-15T15:07:54;17.30;64.40
19192;DHT22;9728;48.194;16.346;2023-04-15T15:12:59;17.20;64.30
19192;DHT22;9728;48.194;16.346;2023-04-15T15:18:03;17.20;64.30
19192;DHT22;9728;48.194;16.346;2023-04-15T15:23:07;17.20;64.50
19192;DHT22;9728;48.194;16.346;2023-04-15T15:28:11;17.20;64.60
19192;DHT22;9728;48.194;16.346;2023-04-15T15:33:15;17.10;64.30
19192;DHT22;9728;48.194;16.346;2023-04-15T15:38:18;17.10;64.40
19192;DHT22;9728;48.194;16.346;2023-04-15T15:43:23;17.10;64.40
19192;DHT22;9728;48.194;16.346;2023-04-15T15:48:27;17.00;64.30
19192;DHT22;9728;48.194;16.346;2023-04-15T15:53:30;17.00;64.40
19192;DHT22;9728;48.194;16.346;2023-04-15T15:58:35;17.00;64.30
19192;DHT22;9728;48.194;16.346;2023-04-15T16:03:38;17.00;64.30
19192;DHT22;9728;48.194;16.346;2023-04-15T16:08:42;17.00;64.40
19192;DHT22;9728;48.194;16.346;2023-04-15T16:13:47;17.00;64.30
19192;DHT22;9728;48.194;16.346;2023-04-15T16:18:51;17.00;64.20
19192;DHT22;9728;48.194;16.346;2023-04-15T16:23:54;17.00;64.30
19192;DHT22;9728;48.194;16.346;2023-04-15T16:29:00;16.90;64.10
19192;DHT22;9728;48.194;16.346;2023-04-15T16:34:04;16.90;63.90
19192;DHT22;9728;48.194;16.346;2023-04-15T16:39:07;16.90;64.00
19192;DHT22;9728;48.194;16.346;2023-04-15T16:44:12;16.80;63.90
19192;DHT22;9728;48.194;16.346;2023-04-15T16:49:17;16.80;63.90
19192;DHT22;9728;48.194;16.346;2023-04-15T16:54:23;16.70;64.00
19192;DHT22;9728;48.194;16.346;2023-04-15T16:59:27;16.70;64.00
19192;DHT22;9728;48.194;16.346;2023-04-15T17:04:30;16.60;64.00
19192;DHT22;9728;48.194;16.346;2023-04-15T17:09:37;16.60;64.10
19192;DHT22;9728;48.194;16.346;2023-04-15T17:14:42;16.60;64.10
19192;DHT22;9728;48.194;16.346;2023-04-15T17:19:46;16.60;64.00
19192;DHT22;9728;48.194;16.346;2023-04-15T17:24:50;16.50;63.90
19192;DHT22;9728;48.194;16.346;2023-04-15T17:29:55;16.50;63.90
19192;DHT22;9728;48.194;16.346;2023-04-15T17:34:58;16.50;63.90
19192;DHT22;9728;48.194;16.346;2023-04-15T17:40:03;16.50;64.10
19192;DHT22;9728;48.194;16.346;2023-04-15T17:45:11;16.40;64.00
19192;DHT22;9728;48.194;16.346;2023-04-15T17:50:16;16.40;63.80
19192;DHT22;9728;48.194;16.346;2023-04-15T17:55:20;16.40;64.00
19192;DHT22;9728;48.194;16.346;2023-04-15T18:00:28;16.40;64.20
19192;DHT22;9728;48.194;16.346;2023-04-15T18:05:32;16.40;64.10
19192;DHT22;9728;48.194;16.346;2023-04-15T18:10:38;16.40;64.00
19192;DHT22;9728;48.194;16.346;2023-04-15T18:15:43;16.30;63.90
19192;DHT22;9728;48.194;16.346;2023-04-15T18:20:48;16.30;63.80
19192;DHT22;9728;48.194;16.346;2023-04-15T18:25:52;16.20;63.80
19192;DHT22;9728;48.194;16.346;2023-04-15T18:30:57;16.20;64.00
19192;DHT22;9728;48.194;16.346;2023-04-15T18:36:02;16.10;64.00
19192;DHT22;9728;48.194;16.346;2023-04-15T18:41:06;16.10;63.90
19192;DHT22;9728;48.194;16.346;2023-04-15T18:46:13;16.00;63.90
19192;DHT22;9728;48.194;16.346;2023-04-15T18:51:18;16.00;63.90
19192;DHT22;9728;48.194;16.346;2023-04-15T18:56:22;15.90;63.90
19192;DHT22;9728;48.194;16.346;2023-04-15T19:01:30;15.90;64.00
19192;DHT22;9728;48.194;16.346;2023-04-15T19:06:35;15.90;64.00
19192;DHT22;9728;48.194;16.346;2023-04-15T19:11:39;15.80;64.00
19192;DHT22;9728;48.194;16.346;2023-04-15T19:16:46;15.80;64.10
19192;DHT22;9728;48.194;16.346;2023-04-15T19:21:52;15.70;64.00
19192;DHT22;9728;48.194;16.346;2023-04-15T19:26:56;15.70;64.20
19192;DHT22;9728;48.194;16.346;2023-04-15T19:32:01;15.70;64.30
19192;DHT22;9728;48.194;16.346;2023-04-15T19:37:06;15.60;64.20
19192;DHT22;9728;48.194;16.346;2023-04-15T19:42:10;15.60;64.20
19192;DHT22;9728;48.194;16.346;2023-04-15T19:47:18;15.50;64.30
19192;DHT22;9728;48.194;16.346;2023-04-15T19:52:23;15.50;64.40
19192;DHT22;9728;48.194;16.346;2023-04-15T19:57:41;15.50;64.50
19192;DHT22;9728;48.194;16.346;2023-04-15T20:02:47;15.40;64.50
19192;DHT22;9728;48.194;16.346;2023-04-15T20:07:52;15.40;64.50
19192;DHT22;9728;48.194;16.346;2023-04-15T20:12:56;15.40;64.50
19192;DHT22;9728;48.194;16.346;2023-04-15T20:18:02;15.30;65.50
19192;DHT22;9728;48.194;16.346;2023-04-15T20:23:06;15.30;64.60
19192;DHT22;9728;48.194;16.346;2023-04-15T20:28:10;15.30;64.70
19192;DHT22;9728;48.194;16.346;2023-04-15T20:33:18;15.20;64.60
19192;DHT22;9728;48.194;16.346;2023-04-15T20:38:23;15.20;64.80
19192;DHT22;9728;48.194;16.346;2023-04-15T20:43:27;15.20;65.10
19192;DHT22;9728;48.194;16.346;2023-04-15T20:48:37;15.10;64.70
19192;DHT22;9728;48.194;16.346;2023-04-15T20:53:45;15.10;64.90
19192;DHT22;9728;48.194;16.346;2023-04-15T20:58:49;15.10;64.80
19192;DHT22;9728;48.194;16.346;2023-04-15T21:03:54;15.10;65.00
19192;DHT22;9728;48.194;16.346;2023-04-15T21:08:57;15.10;65.00
19192;DHT22;9728;48.194;16.346;2023-04-15T21:14:01;15.10;65.10
19192;DHT22;9728;48.194;16.346;2023-04-15T21:19:07;15.00;65.00
19192;DHT22;9728;48.194;16.346;2023-04-15T21:24:12;15.00;65.10
19192;DHT22;9728;48.194;16.346;2023-04-15T21:29:15;15.00;65.10
19192;DHT22;9728;48.194;16.346;2023-04-15T21:34:19;15.00;65.10
19192;DHT22;9728;48.194;16.346;2023-04-15T21:39:23;15.00;65.20
19192;DHT22;9728;48.194;16.346;2023-04-15T21:44:26;15.00;65.20
19192;DHT22;9728;48.194;16.346;2023-04-15T21:49:31;15.00;65.30
19192;DHT22;9728;48.194;16.346;2023-04-15T21:54:34;15.00;65.40
19192;DHT22;9728;48.194;16.346;2023-04-15T21:59:38;15.00;65.30
19192;DHT22;9728;48.194;16.346;2023-04-15T22:04:43;15.00;65.30
19192;DHT22;9728;48.194;16.346;2023-04-15T22:09:46;15.00;65.40
19192;DHT22;9728;48.194;16.346;2023-04-15T22:14:50;15.00;65.40
19192;DHT22;9728;48.194;16.346;2023-04-15T22:19:55;15.00;65.40
19192;DHT22;9728;48.194;16.346;2023-04-15T22:24:58;15.00;65.40
19192;DHT22;9728;48.194;16.346;2023-04-15T22:30:01;15.00;65.40
19192;DHT22;9728;48.194;16.346;2023-04-15T22:35:07;15.00;65.40
19192;DHT22;9728;48.194;16.346;2023-04-15T22:40:11;15.00;65.40
19192;DHT22;9728;48.194;16.346;2023-04-15T22:45:14;15.00;65.40
19192;DHT22;9728;48.194;16.346;2023-04-15T22:50:19;15.00;65.40
19192;DHT22;9728;48.194;16.346;2023-04-15T22:55:22;15.00;65.40
19192;DHT22;9728;48.194;16.346;2023-04-15T23:00:25;15.00;65.40
19192;DHT22;9728;48.194;16.346;2023-04-15T23:05:30;15.00;65.40
19192;DHT22;9728;48.194;16.346;2023-04-15T23:10:34;15.00;65.40
19192;DHT22;9728;48.194;16.346;2023-04-15T23:15:38;15.00;65.40
19192;DHT22;9728;48.194;16.346;2023-04-15T23:20:43;15.00;65.40
19192;DHT22;9728;48.194;16.346;2023-04-15T23:25:46;15.00;65.40
19192;DHT22;9728;48.194;16.346;2023-04-15T23:30:50;15.00;65.40
19192;DHT22;9728;48.194;16.346;2023-04-15T23:35:54;15.00;65.40
19192;DHT22;9728;48.194;16.346;2023-04-15T23:40:58;15.00;65.40
19192;DHT22;9728;48.194;16.346;2023-04-15T23:46:01;14.90;65.20
19192;DHT22;9728;48.194;16.346;2023-04-15T23:51:06;14.90;65.40
19192;DHT22;9728;48.194;16.346;2023-04-15T23:56:09;14.90;65.40
